Time;durP1;ratioP1;P1;durP2;ratioP2;P2;SDS_P1;SDS_P2;PMS_P1;PMS_P2;Temp;Humidity;BMP_temperature;BMP_pressure;BME280_temperature;BME280_humidity;BME280_pressure;Samples;Min_cycle;Max_cycle;Signal;HPM_P1;HPM_P2
2021/12/28 00:00:42;;;;;;;0.73;0.73;;;7.70;94.80;7.10;96808.00;;;;5114512;28;20204;-73
2021/12/28 00:03:08;;;;;;;0.87;0.87;;;7.70;95.00;6.90;96801.00;;;;5114336;28;20275;-71
2021/12/28 00:05:35;;;;;;;0.63;0.63;;;7.70;94.30;6.90;96809.00;;;;5114436;28;20194;-71
2021/12/28 00:08:02;;;;;;;1.17;1.00;;;7.70;94.80;6.80;96806.00;;;;5114340;28;20194;-71
2021/12/28 00:10:29;;;;;;;0.60;0.60;;;7.60;94.80;6.80;96795.00;;;;5114503;28;20269;-72
2021/12/28 00:12:55;;;;;;;0.60;0.60;;;7.60;95.10;6.80;96797.00;;;;5116199;28;20225;-72
2021/12/28 00:15:35;;;;;;;0.50;0.50;;;7.60;94.80;7.00;96799.00;;;;5117994;28;20613;-71
2021/12/28 00:18:04;;;;;;;0.60;0.60;;;7.60;95.50;6.90;96802.00;;;;5117991;28;20225;-72
2021/12/28 00:20:34;;;;;;;3.53;1.27;;;7.70;94.70;6.80;96801.00;;;;5117897;28;20185;-71
2021/12/28 00:23:03;;;;;;;0.57;0.57;;;7.60;94.60;6.80;96796.00;;;;5099897;28;20309;-72
2021/12/28 00:25:32;;;;;;;0.50;0.50;;;7.50;95.20;6.70;96791.00;;;;5117859;28;20255;-72
2021/12/28 00:27:59;;;;;;;0.50;0.50;;;7.50;95.10;6.70;96791.00;;;;5117828;28;20196;-74
2021/12/28 00:30:26;;;;;;;0.70;0.70;;;7.50;95.40;6.80;96793.00;;;;5117762;28;20194;-71
2021/12/28 00:32:56;;;;;;;0.60;0.60;;;7.60;95.60;6.80;96782.00;;;;5117649;28;20217;-71
2021/12/28 00:35:25;;;;;;;0.60;0.60;;;7.50;95.60;6.80;96779.00;;;;5117634;28;20224;-71
2021/12/28 00:37:52;;;;;;;0.50;0.50;;;7.50;95.20;6.70;96776.00;;;;5117568;28;20335;-71
2021/12/28 00:40:21;;;;;;;0.73;0.73;;;7.50;95.10;6.70;96773.00;;;;5099606;28;20289;-71
2021/12/28 00:42:49;;;;;;;0.70;0.70;;;7.50;95.20;6.70;96767.00;;;;5117675;28;20228;-76
2021/12/28 00:45:16;;;;;;;0.60;0.60;;;7.50;95.40;6.70;96765.00;;;;5117488;28;20229;-74
2021/12/28 00:47:46;;;;;;;0.63;0.63;;;7.50;95.50;6.80;96770.00;;;;5117634;28;20214;-76
2021/12/28 00:50:16;;;;;;;0.50;0.50;;;7.50;95.50;6.70;96757.00;;;;5117364;28;20324;-76
2021/12/28 00:52:43;;;;;;;0.70;0.70;;;7.50;95.30;6.70;96756.00;;;;5117231;28;20286;-72
2021/12/28 00:55:11;;;;;;;0.50;0.50;;;7.50;95.30;6.90;96771.00;;;;5117312;28;20218;-73
2021/12/28 00:57:41;;;;;;;0.60;0.60;;;7.60;94.90;6.90;96753.00;;;;5117448;28;20203;-71
2021/12/28 01:00:15;;;;;;;6.90;1.37;;;7.60;95.30;7.00;96763.00;;;;5117265;28;20228;-72
2021/12/28 01:02:43;;;;;;;0.50;0.50;;;7.70;94.90;6.90;96756.00;;;;5117313;28;20211;-73
2021/12/28 01:05:12;;;;;;;1.80;1.57;;;7.60;94.00;7.10;96755.00;;;;5117132;28;20234;-75
2021/12/28 01:07:39;;;;;;;1.43;1.33;;;7.80;94.20;7.00;96761.00;;;;5117241;28;20667;-72
2021/12/28 01:10:10;;;;;;;1.77;1.67;;;7.80;93.40;7.10;96760.00;;;;5099130;28;20198;-72
2021/12/28 01:12:37;;;;;;;0.70;0.70;;;7.80;93.60;7.20;96747.00;;;;5116974;28;20668;-71
2021/12/28 01:15:06;;;;;;;0.90;0.90;;;7.90;93.00;7.10;96747.00;;;;5116904;28;20728;-72
2021/12/28 01:17:37;;;;;;;0.60;0.60;;;7.80;92.40;7.30;96746.00;;;;5117059;28;20177;-73
2021/12/28 01:20:10;;;;;;;0.50;0.50;;;7.90;92.10;7.40;96743.00;;;;5099097;28;20228;-72
2021/12/28 01:22:38;;;;;;;0.50;0.50;;;8.00;91.60;7.20;96740.00;;;;5117019;28;20291;-74
2021/12/28 01:25:09;;;;;;;1.00;1.00;;;8.00;91.80;7.30;96744.00;;;;5116174;28;20217;-73
2021/12/28 01:27:36;;;;;;;0.53;0.53;;;7.90;92.00;7.40;96743.00;;;;5116894;28;20285;-74
2021/12/28 01:30:07;;;;;;;0.50;0.50;;;8.00;91.20;7.40;96734.00;;;;5116850;28;20350;-70
2021/12/28 01:32:35;;;;;;;0.50;0.50;;;8.00;90.90;7.60;96732.00;;;;5116610;28;20683;-71
2021/12/28 01:35:03;;;;;;;1.67;1.57;;;8.20;90.10;7.60;96732.00;;;;5098860;28;20345;-72
2021/12/28 01:37:30;;;;;;;0.57;0.57;;;8.20;89.40;7.40;96718.00;;;;5116631;28;20274;-74
2021/12/28 01:39:56;;;;;;;8.60;2.67;;;8.20;89.40;7.40;96721.00;;;;5116674;28;20194;-75
2021/12/28 01:42:23;;;;;;;0.50;0.50;;;8.10;90.10;7.40;96723.00;;;;5116640;28;20213;-74
2021/12/28 01:44:50;;;;;;;5.17;1.23;;;8.10;90.00;7.40;96711.00;;;;5116942;28;20251;-74
2021/12/28 01:47:17;;;;;;;0.90;0.90;;;8.20;89.90;7.40;96713.00;;;;5116468;28;20313;-74
2021/12/28 01:49:45;;;;;;;0.60;0.60;;;8.10;90.60;7.60;96708.00;;;;5116607;28;20205;-73
2021/12/28 01:52:14;;;;;;;0.77;0.77;;;8.20;89.10;7.70;96708.00;;;;5116422;28;20362;-73
2021/12/28 01:54:42;;;;;;;0.60;0.60;;;8.30;88.60;7.80;96706.00;;;;5116503;28;20268;-74
2021/12/28 01:57:11;;;;;;;0.77;0.77;;;8.40;88.00;7.70;96699.00;;;;5116370;28;20226;-74
2021/12/28 01:59:37;;;;;;;0.80;0.80;;;8.40;87.30;7.70;96701.00;;;;5098583;28;20224;-74
2021/12/28 02:02:06;;;;;;;0.60;0.60;;;8.40;87.50;7.50;96692.00;;;;5116394;28;20228;-74
2021/12/28 02:04:33;;;;;;;4.73;0.70;;;8.30;87.60;7.40;96685.00;;;;5116322;28;20239;-73
2021/12/28 02:07:02;;;;;;;0.60;0.60;;;8.20;88.10;7.30;96681.00;;;;5116187;28;20216;-74
2021/12/28 02:09:28;;;;;;;0.97;0.97;;;8.10;88.50;7.40;96677.00;;;;5116145;28;20214;-72
2021/12/28 02:11:55;;;;;;;0.50;0.50;;;8.10;88.70;7.40;96676.00;;;;5116249;28;20194;-74
2021/12/28 02:14:22;;;;;;;0.50;0.50;;;8.10;88.70;7.50;96675.00;;;;5098354;28;20661;-75
2021/12/28 02:16:49;;;;;;;0.60;0.60;;;8.10;89.00;7.60;96675.00;;;;5116210;28;20214;-74
2021/12/28 02:19:16;;;;;;;0.80;0.80;;;8.20;88.30;7.50;96686.00;;;;5116022;28;20200;-74
2021/12/28 02:21:43;;;;;;;0.60;0.60;;;8.30;87.90;7.40;96671.00;;;;5116040;28;20673;-74
2021/12/28 02:24:10;;;;;;;1.03;1.03;;;8.20;87.80;7.30;96672.00;;;;5116067;28;20206;-74
2021/12/28 02:26:38;;;;;;;0.73;0.73;;;8.10;88.30;7.30;96658.00;;;;5115823;28;20225;-74
2021/12/28 02:29:06;;;;;;;0.80;0.80;;;8.10;88.50;7.30;96653.00;;;;5098024;28;20293;-74
2021/12/28 02:31:33;;;;;;;0.70;0.70;;;8.10;88.60;7.30;96654.00;;;;5115808;28;20929;-74
2021/12/28 02:34:02;;;;;;;0.50;0.50;;;8.00;88.70;7.30;96651.00;;;;5115800;28;20209;-74
2021/12/28 02:36:29;;;;;;;1.37;1.37;;;8.00;89.00;7.30;96646.00;;;;5114777;28;20293;-74
2021/12/28 02:38:59;;;;;;;0.47;0.47;;;8.00;88.80;7.20;96648.00;;;;5115764;28;20242;-74
2021/12/28 02:41:28;;;;;;;0.60;0.60;;;8.00;88.50;7.30;96649.00;;;;5115709;28;20655;-73
2021/12/28 02:44:00;;;;;;;0.50;0.50;;;8.00;88.80;7.40;96635.00;;;;5115779;28;20225;-74
2021/12/28 02:46:27;;;;;;;0.53;0.53;;;8.10;88.10;7.40;96636.00;;;;5115712;28;20525;-74
2021/12/28 02:48:54;;;;;;;0.60;0.60;;;8.10;88.10;7.40;96620.00;;;;5115508;28;20262;-73
2021/12/28 02:51:20;;;;;;;1.30;1.30;;;8.10;87.90;7.50;96623.00;;;;5115567;28;20315;-74
2021/12/28 02:53:50;;;;;;;0.60;0.60;;;8.20;87.80;7.30;96631.00;;;;5115390;28;20683;-73
2021/12/28 02:56:19;;;;;;;0.80;0.80;;;8.10;87.60;7.30;96623.00;;;;5115656;28;20201;-73
2021/12/28 02:58:49;;;;;;;0.70;0.70;;;8.10;87.80;7.30;96617.00;;;;5115326;28;20205;-73
2021/12/28 03:01:22;;;;;;;0.80;0.80;;;8.00;88.10;7.30;96615.00;;;;5115563;28;20288;-73
2021/12/28 03:03:54;;;;;;;0.53;0.53;;;8.00;87.90;7.30;96596.00;;;;5115569;28;20304;-73
2021/12/28 03:06:23;;;;;;;4.23;0.90;;;8.00;88.00;7.30;96610.00;;;;5115184;28;20226;-73
2021/12/28 03:08:55;;;;;;;0.50;0.50;;;8.00;88.10;7.40;96602.00;;;;5115173;28;20206;-73
2021/12/28 03:11:28;;;;;;;2.20;1.17;;;8.10;87.70;7.50;96608.00;;;;5115156;28;20696;-74
2021/12/28 03:13:59;;;;;;;0.50;0.50;;;8.20;86.70;7.50;96613.00;;;;5115142;28;20228;-74
2021/12/28 03:16:29;;;;;;;0.50;0.50;;;8.10;87.00;7.50;96607.00;;;;5115135;28;20280;-73
2021/12/28 03:18:57;;;;;;;0.50;0.50;;;8.10;86.80;7.50;96607.00;;;;5115157;28;20620;-73
2021/12/28 03:21:27;;;;;;;7.33;1.13;;;8.20;86.20;7.50;96596.00;;;;5097232;28;20204;-73
2021/12/28 03:23:55;;;;;;;0.80;0.80;;;8.20;86.30;7.50;96591.00;;;;5097335;28;20525;-74
2021/12/28 03:26:25;;;;;;;1.73;1.03;;;8.20;86.60;7.50;96595.00;;;;5114932;28;20206;-74
2021/12/28 03:28:52;;;;;;;0.60;0.60;;;8.10;86.40;7.50;96592.00;;;;5114913;28;20248;-73
2021/12/28 03:31:22;;;;;;;0.50;0.50;;;8.20;86.20;7.50;96576.00;;;;5114891;28;20194;-74
2021/12/28 03:33:54;;;;;;;0.53;0.53;;;8.20;85.60;7.40;96577.00;;;;5114828;28;20285;-74
2021/12/28 03:36:23;;;;;;;0.80;0.80;;;8.10;86.00;7.40;96588.00;;;;5114942;28;20201;-74
2021/12/28 03:38:50;;;;;;;0.53;0.53;;;8.10;86.10;7.40;96579.00;;;;5114737;28;20240;-74
2021/12/28 03:41:21;;;;;;;1.47;1.37;;;8.10;85.90;7.40;96579.00;;;;5114909;28;20194;-74
2021/12/28 03:43:54;;;;;;;0.60;0.60;;;8.10;86.30;7.30;96570.00;;;;5114838;28;20182;-73
2021/12/28 03:46:24;;;;;;;0.70;0.70;;;8.10;86.20;7.30;96567.00;;;;5114669;28;20273;-74
2021/12/28 03:48:53;;;;;;;0.67;0.67;;;8.10;87.40;7.40;96561.00;;;;5114668;28;20235;-73
2021/12/28 03:51:20;;;;;;;0.50;0.50;;;8.10;86.80;7.30;96522.00;;;;5114506;28;20226;-75
2021/12/28 03:53:50;;;;;;;0.80;0.80;;;8.10;86.70;7.30;96563.00;;;;5114677;28;20305;-74
2021/12/28 03:56:20;;;;;;;0.47;0.47;;;8.00;86.70;7.40;96560.00;;;;5114697;28;20248;-73
2021/12/28 03:58:51;;;;;;;0.60;0.60;;;8.10;87.00;7.30;96559.00;;;;5114615;28;20228;-73
2021/12/28 04:01:23;;;;;;;0.60;0.60;;;8.10;86.70;7.30;96552.00;;;;5114446;28;20335;-74
2021/12/28 04:03:50;;;;;;;0.57;0.57;;;8.00;86.70;7.30;96551.00;;;;5114526;28;20665;-73
2021/12/28 04:06:19;;;;;;;1.60;1.47;;;8.00;86.70;7.30;96555.00;;;;5114417;28;20197;-74
2021/12/28 04:08:46;;;;;;;0.53;0.53;;;8.00;86.50;7.30;96553.00;;;;5114618;28;20194;-73
2021/12/28 04:14:02;;;;;;;1.10;1.07;;;8.00;86.20;7.30;96552.00;;;;5112059;28;20236;-73
2021/12/28 04:16:32;;;;;;;0.90;0.90;;;8.00;86.40;7.30;96553.00;;;;5114457;28;20270;-75
2021/12/28 04:19:04;;;;;;;0.50;0.50;;;8.00;86.50;7.30;96545.00;;;;5114525;28;20233;-74
2021/12/28 04:21:31;;;;;;;0.70;0.70;;;8.00;87.00;7.30;96547.00;;;;5114371;28;20209;-73
2021/12/28 04:23:57;;;;;;;1.33;1.23;;;8.00;86.60;7.30;96548.00;;;;5114186;28;20221;-73
2021/12/28 04:26:28;;;;;;;0.50;0.50;;;8.00;86.40;7.30;96542.00;;;;5114189;28;20222;-73
2021/12/28 04:28:55;;;;;;;0.60;0.60;;;8.00;86.70;7.30;96552.00;;;;5114052;28;20271;-73
2021/12/28 04:31:22;;;;;;;21.03;1.07;;;8.00;86.90;7.30;96552.00;;;;5114067;28;20198;-73
2021/12/28 04:33:49;;;;;;;0.77;0.77;;;8.00;86.80;7.20;96556.00;;;;5114038;28;20313;-74
2021/12/28 04:36:18;;;;;;;0.60;0.60;;;8.00;86.90;7.20;96548.00;;;;5096061;28;20542;-73
2021/12/28 04:38:46;;;;;;;0.60;0.60;;;7.90;87.20;7.00;96544.00;;;;5114057;28;20640;-73
2021/12/28 04:41:15;;;;;;;0.70;0.70;;;7.90;87.50;7.10;96545.00;;;;5114027;28;20225;-74
2021/12/28 04:43:46;;;;;;;1.00;1.00;;;7.90;87.60;7.10;96540.00;;;;5114027;28;20637;-73
2021/12/28 04:46:12;;;;;;;0.50;0.50;;;7.90;87.80;7.10;96518.00;;;;5113945;28;20229;-74
2021/12/28 04:48:40;;;;;;;0.90;0.90;;;7.90;88.10;7.20;96532.00;;;;5113986;28;20201;-73
2021/12/28 04:51:07;;;;;;;1.03;1.03;;;7.90;88.40;7.20;96528.00;;;;5113901;28;20193;-73
2021/12/28 04:53:36;;;;;;;0.50;0.50;;;7.90;88.30;7.20;96526.00;;;;5113641;28;20217;-74
2021/12/28 04:56:05;;;;;;;0.87;0.73;;;7.90;88.20;7.20;96523.00;;;;5113780;28;20202;-74
2021/12/28 04:58:31;;;;;;;0.50;0.50;;;8.00;88.20;7.20;96505.00;;;;5096050;28;20613;-73
2021/12/28 05:00:58;;;;;;;0.50;0.50;;;7.90;88.40;7.20;96524.00;;;;5117137;28;20289;-73
2021/12/28 05:03:24;;;;;;;0.50;0.50;;;8.00;88.40;7.20;96524.00;;;;5117352;28;20226;-74
2021/12/28 05:05:53;;;;;;;0.60;0.60;;;7.90;88.40;7.20;96494.00;;;;5117261;28;20633;-74
2021/12/28 05:08:23;;;;;;;0.80;0.80;;;7.90;88.50;7.20;96512.00;;;;5117095;28;20230;-73
2021/12/28 05:10:52;;;;;;;0.67;0.67;;;7.90;88.60;7.20;96500.00;;;;5117289;28;20209;-74
2021/12/28 05:13:23;;;;;;;0.67;0.67;;;7.90;88.80;7.30;96503.00;;;;5117020;28;20286;-74
2021/12/28 05:15:49;;;;;;;5.50;1.00;;;8.00;88.60;7.20;96501.00;;;;5117048;28;20202;-73
2021/12/28 05:18:17;;;;;;;0.50;0.50;;;8.00;88.10;7.20;96498.00;;;;5099072;28;20205;-74
2021/12/28 05:20:43;;;;;;;0.77;0.77;;;8.00;88.10;7.30;96491.00;;;;5116980;28;20278;-72
2021/12/28 05:23:11;;;;;;;2.37;1.10;;;8.00;88.10;7.20;96497.00;;;;5099163;28;20201;-74
2021/12/28 05:25:38;;;;;;;0.50;0.50;;;8.00;88.20;7.20;96490.00;;;;5116913;28;20232;-73
2021/12/28 05:28:08;;;;;;;0.50;0.50;;;8.00;88.50;7.30;96480.00;;;;5116856;28;20229;-74
2021/12/28 05:30:36;;;;;;;0.60;0.60;;;8.00;88.40;7.30;96478.00;;;;5116789;28;20204;-74
2021/12/28 05:33:04;;;;;;;0.97;0.97;;;8.00;88.20;7.20;96491.00;;;;5098875;28;20228;-74
2021/12/28 05:35:33;;;;;;;0.77;0.77;;;8.00;88.10;7.20;96483.00;;;;5116886;28;20281;-74
2021/12/28 05:38:01;;;;;;;0.60;0.60;;;8.00;88.60;7.20;96486.00;;;;5116711;28;20309;-74
2021/12/28 05:40:28;;;;;;;0.53;0.53;;;8.00;88.60;7.20;96490.00;;;;5098872;28;20205;-74
2021/12/28 05:42:55;;;;;;;0.50;0.50;;;8.00;88.80;7.30;96474.00;;;;5116503;28;20228;-74
2021/12/28 05:45:24;;;;;;;0.73;0.73;;;8.00;88.80;7.30;96487.00;;;;5098696;28;20292;-72
2021/12/28 05:47:50;;;;;;;0.80;0.80;;;8.00;88.80;7.30;96473.00;;;;5116467;28;20348;-74
2021/12/28 05:50:19;;;;;;;0.50;0.50;;;8.00;88.90;7.30;96469.00;;;;5116663;28;20228;-74
2021/12/28 05:52:46;;;;;;;0.57;0.57;;;8.10;89.10;7.30;96459.00;;;;5098451;28;20232;-74
2021/12/28 05:55:15;;;;;;;0.60;0.60;;;8.00;88.90;7.30;96471.00;;;;5116525;28;20216;-74
2021/12/28 05:57:42;;;;;;;0.53;0.53;;;8.00;89.20;7.30;96472.00;;;;5116438;28;20282;-74
2021/12/28 06:00:13;;;;;;;0.60;0.60;;;8.00;89.40;7.30;96461.00;;;;5116320;28;20233;-74
2021/12/28 06:02:40;;;;;;;0.70;0.70;;;8.00;89.80;7.30;96464.00;;;;5116308;28;20209;-73
2021/12/28 06:05:07;;;;;;;0.83;0.83;;;8.00;89.70;7.30;96464.00;;;;5116286;28;20317;-74
2021/12/28 06:07:34;;;;;;;0.57;0.57;;;8.00;89.90;7.20;96475.00;;;;5116337;28;20194;-72
2021/12/28 06:10:01;;;;;;;0.60;0.60;;;8.00;90.20;7.20;96477.00;;;;5116001;28;20330;-74
2021/12/28 06:12:28;;;;;;;0.60;0.60;;;8.00;90.60;7.20;96471.00;;;;5116097;28;20182;-74
2021/12/28 06:14:55;;;;;;;0.80;0.80;;;7.90;90.70;7.20;96463.00;;;;5116166;28;20222;-74
2021/12/28 06:17:22;;;;;;;0.73;0.73;;;7.90;91.10;7.10;96463.00;;;;5116207;28;20207;-74
2021/12/28 06:19:51;;;;;;;0.60;0.60;;;7.90;91.40;7.10;96455.00;;;;5116030;28;20201;-73
2021/12/28 06:22:20;;;;;;;0.70;0.70;;;7.90;91.80;7.10;96453.00;;;;5115940;28;20225;-73
2021/12/28 06:24:48;;;;;;;1.03;0.97;;;7.90;92.00;7.10;96453.00;;;;5116034;28;20186;-73
2021/12/28 06:27:15;;;;;;;0.50;0.50;;;7.80;92.20;7.00;96449.00;;;;5115942;28;20218;-73
2021/12/28 06:29:42;;;;;;;0.67;0.67;;;7.90;92.60;7.10;96455.00;;;;5098019;28;20225;-73
2021/12/28 06:32:09;;;;;;;0.73;0.73;;;7.90;92.80;7.10;96449.00;;;;5115883;28;20649;-74
2021/12/28 06:34:36;;;;;;;0.60;0.60;;;7.80;92.70;7.30;96439.00;;;;5115797;28;20309;-73
2021/12/28 06:37:03;;;;;;;0.90;0.80;;;7.90;93.80;7.20;96447.00;;;;5115674;28;20316;-73
2021/12/28 06:39:30;;;;;;;0.60;0.60;;;7.90;92.80;7.30;96435.00;;;;5115719;28;20296;-73
2021/12/28 06:41:58;;;;;;;0.50;0.50;;;8.00;93.00;7.30;96439.00;;;;5115716;28;20625;-73
2021/12/28 06:44:24;;;;;;;0.50;0.50;;;8.00;92.70;7.40;96440.00;;;;5115685;28;20296;-73
2021/12/28 06:46:54;;;;;;;0.87;0.87;;;8.10;91.80;7.50;96439.00;;;;5115723;28;20251;-73
2021/12/28 06:49:21;;;;;;;0.70;0.70;;;8.10;91.40;7.40;96426.00;;;;5115569;28;20205;-73
2021/12/28 06:51:47;;;;;;;0.60;0.60;;;8.10;91.20;7.50;96431.00;;;;5115762;28;20198;-73
2021/12/28 06:54:17;;;;;;;0.60;0.60;;;8.20;91.20;7.60;96423.00;;;;5115421;28;20276;-73
2021/12/28 06:56:45;;;;;;;0.50;0.50;;;8.20;91.00;7.70;96426.00;;;;5115382;28;20217;-73
2021/12/28 06:59:12;;;;;;;0.50;0.50;;;8.30;90.00;7.80;96446.00;;;;5115451;28;20204;-72
2021/12/28 07:01:38;;;;;;;0.50;0.50;;;8.40;89.60;7.80;96439.00;;;;5115374;28;20221;-73
2021/12/28 07:04:05;;;;;;;0.60;0.60;;;8.40;88.80;7.90;96441.00;;;;5115408;28;20818;-73
2021/12/28 07:06:32;;;;;;;0.60;0.60;;;8.50;88.60;8.00;96425.00;;;;5097411;28;20308;-73
2021/12/28 07:09:01;;;;;;;0.60;0.60;;;8.60;87.70;7.90;96431.00;;;;5115168;28;20209;-73
2021/12/28 07:11:28;;;;;;;0.60;0.60;;;8.60;87.70;7.90;96438.00;;;;5115169;28;20225;-71
2021/12/28 07:13:54;;;;;;;0.60;0.60;;;8.60;87.50;7.90;96430.00;;;;5115259;28;20238;-74
2021/12/28 07:16:21;;;;;;;0.50;0.50;;;8.60;88.00;7.90;96440.00;;;;5115157;28;20202;-73
2021/12/28 07:18:47;;;;;;;0.60;0.60;;;8.60;87.50;8.00;96424.00;;;;5097057;28;20747;-73
2021/12/28 07:21:16;;;;;;;0.90;0.90;;;8.60;87.60;8.00;96417.00;;;;5114628;28;20297;-74
2021/12/28 07:23:43;;;;;;;0.60;0.60;;;8.60;87.20;8.10;96420.00;;;;5096588;28;20725;-74
2021/12/28 07:26:12;;;;;;;0.50;0.50;;;8.70;87.10;8.20;96420.00;;;;5115021;28;20202;-74
2021/12/28 07:28:39;;;;;;;0.60;0.60;;;;;8.10;96418.00;;;;5114890;28;20232;-73
2021/12/28 07:31:08;;;;;;;0.70;0.70;;;8.80;85.80;8.30;96413.00;;;;5115032;28;20198;-74
2021/12/28 07:33:34;;;;;;;0.60;0.60;;;8.90;86.30;8.20;96422.00;;;;5114990;28;20214;-73
2021/12/28 07:36:04;;;;;;;0.90;0.90;;;8.90;85.80;8.20;96431.00;;;;5096894;28;20209;-73
2021/12/28 07:38:32;;;;;;;0.50;0.50;;;8.90;85.60;8.30;96430.00;;;;5114734;28;20201;-74
2021/12/28 07:41:00;;;;;;;0.50;0.50;;;9.00;85.70;8.40;96427.00;;;;5114688;28;20304;-73
2021/12/28 07:43:26;;;;;;;0.60;0.60;;;9.00;85.30;8.40;96419.00;;;;5114801;28;20200;-73
2021/12/28 07:45:53;;;;;;;1.23;1.23;;;9.00;85.30;8.30;96430.00;;;;5114678;28;20233;-73
2021/12/28 07:48:19;;;;;;;0.60;0.60;;;9.00;84.90;8.50;96433.00;;;;5114802;28;20292;-73
2021/12/28 07:50:46;;;;;;;0.50;0.50;;;9.10;85.20;8.40;96426.00;;;;5114587;28;20581;-72
2021/12/28 07:53:12;;;;;;;0.57;0.57;;;9.20;84.80;8.40;96440.00;;;;5114551;28;20214;-73
2021/12/28 07:55:39;;;;;;;0.70;0.70;;;9.10;85.20;8.40;96425.00;;;;5114216;28;20224;-73
2021/12/28 07:58:06;;;;;;;0.70;0.70;;;9.10;85.20;8.50;96433.00;;;;5096514;28;20571;-73
2021/12/28 08:00:33;;;;;;;0.40;0.40;;;9.20;84.70;8.60;96440.00;;;;5114548;28;20200;-73
2021/12/28 08:03:03;;;;;;;0.60;0.60;;;9.20;85.00;8.70;96430.00;;;;5114373;28;20214;-73
2021/12/28 08:05:30;;;;;;;0.60;0.60;;;9.30;85.30;8.60;96432.00;;;;5114480;28;20655;-73
2021/12/28 08:07:57;;;;;;;0.60;0.60;;;9.30;83.90;8.70;96427.00;;;;5114341;28;20221;-73
2021/12/28 08:10:24;;;;;;;0.50;0.50;;;9.40;84.00;8.70;96449.00;;;;5114609;28;20220;-73
2021/12/28 08:12:54;;;;;;;0.50;0.50;;;9.40;83.70;8.60;96448.00;;;;5114175;28;20267;-73
2021/12/28 08:15:21;;;;;;;0.50;0.50;;;9.30;84.40;8.70;96445.00;;;;5114336;28;20275;-73
2021/12/28 08:17:48;;;;;;;0.50;0.50;;;9.30;85.50;8.80;96438.00;;;;5114240;28;20507;-73
2021/12/28 08:20:16;;;;;;;0.50;0.50;;;9.40;84.70;8.90;96445.00;;;;5114168;28;20225;-73
2021/12/28 08:22:45;;;;;;;0.50;0.50;;;9.50;84.40;8.90;96449.00;;;;5114181;28;20201;-74
2021/12/28 08:25:15;;;;;;;0.60;0.60;;;9.60;85.10;8.70;96451.00;;;;5114102;28;20269;-73
2021/12/28 08:27:45;;;;;;;0.63;0.63;;;9.40;85.50;8.70;96447.00;;;;5114114;28;20648;-73
2021/12/28 08:30:14;;;;;;;0.60;0.60;;;9.40;86.00;8.80;96457.00;;;;5113934;28;20296;-73
2021/12/28 08:32:42;;;;;;;0.50;0.50;;;9.40;86.40;8.80;96448.00;;;;5114121;28;20209;-74
2021/12/28 08:35:11;;;;;;;0.60;0.60;;;9.40;86.60;9.00;96456.00;;;;5116356;28;20204;-73
2021/12/28 08:37:38;;;;;;;0.50;0.50;;;9.60;86.10;9.00;96462.00;;;;5117702;28;20312;-74
2021/12/28 08:40:08;;;;;;;0.60;0.60;;;9.60;86.10;9.00;96454.00;;;;5099719;28;20194;-74
2021/12/28 08:42:35;;;;;;;0.60;0.60;;;9.60;86.50;8.80;96458.00;;;;5117582;28;20222;-74
2021/12/28 08:45:02;;;;;;;0.80;0.80;;;9.50;87.20;8.80;96467.00;;;;5117582;28;20701;-73
2021/12/28 08:47:29;;;;;;;0.50;0.50;;;9.50;87.20;8.70;96484.00;;;;5117466;28;20221;-73
2021/12/28 08:49:58;;;;;;;0.60;0.60;;;9.40;87.60;8.80;96474.00;;;;5099648;28;20634;-73
2021/12/28 08:52:26;;;;;;;0.60;0.60;;;9.40;88.50;8.90;96467.00;;;;5117433;28;20209;-72
2021/12/28 08:54:54;;;;;;;0.50;0.50;;;9.50;88.10;8.90;96464.00;;;;5117318;28;20226;-73
2021/12/28 08:57:23;;;;;;;0.50;0.50;;;9.60;87.20;8.80;96480.00;;;;5117411;28;20198;-73
2021/12/28 08:59:52;;;;;;;0.80;0.80;;;9.50;87.50;8.90;96476.00;;;;5117428;28;20209;-73
2021/12/28 09:02:19;;;;;;;0.60;0.60;;;9.60;88.00;8.90;96471.00;;;;5117313;28;20687;-73
2021/12/28 09:04:48;;;;;;;0.50;0.50;;;9.50;87.40;9.00;96465.00;;;;5099337;28;20230;-73
2021/12/28 09:07:18;;;;;;;0.50;0.50;;;9.60;87.70;8.90;96470.00;;;;5117211;28;20217;-73
2021/12/28 09:09:46;;;;;;;0.60;0.60;;;9.60;87.50;9.20;96476.00;;;;5117224;28;20229;-73
2021/12/28 09:12:13;;;;;;;0.50;0.50;;;9.70;87.30;9.00;96475.00;;;;5116985;28;20190;-73
2021/12/28 09:14:43;;;;;;;0.70;0.70;;;9.70;87.20;9.20;96474.00;;;;5117046;28;20225;-73
2021/12/28 09:17:10;;;;;;;2.40;0.93;;;9.80;86.80;9.20;96485.00;;;;5099022;28;20296;-74
2021/12/28 09:19:37;;;;;;;0.60;0.60;;;9.80;86.30;9.30;96488.00;;;;5117201;28;20186;-73
2021/12/28 09:22:04;;;;;;;0.57;0.57;;;9.80;86.90;9.40;96496.00;;;;5116949;28;20501;-73
2021/12/28 09:24:32;;;;;;;1.70;1.37;;;10.00;86.70;9.20;96474.00;;;;5117017;28;20289;-73
2021/12/28 09:26:58;;;;;;;0.60;0.60;;;9.90;86.20;9.40;96467.00;;;;5116871;28;20222;-74
2021/12/28 09:29:25;;;;;;;0.97;0.97;;;9.90;86.50;9.30;96486.00;;;;5116864;28;20582;-74
2021/12/28 09:31:52;;;;;;;0.60;0.60;;;10.00;85.90;9.40;96488.00;;;;5116702;28;20205;-74
2021/12/28 09:34:19;;;;;;;0.60;0.60;;;10.10;85.60;9.40;96497.00;;;;5116705;28;20228;-74
2021/12/28 09:36:45;;;;;;;0.80;0.80;;;10.00;85.80;9.40;96495.00;;;;5116830;28;20208;-74
2021/12/28 09:39:12;;;;;;;0.50;0.50;;;10.10;86.20;9.40;96498.00;;;;5116577;28;20248;-73
2021/12/28 09:41:39;;;;;;;0.50;0.50;;;10.00;86.50;9.30;96501.00;;;;5098787;28;20292;-74
2021/12/28 09:44:07;;;;;;;0.90;0.90;;;10.00;86.70;9.50;96512.00;;;;5116434;28;20214;-73
2021/12/28 09:46:33;;;;;;;0.60;0.60;;;10.10;86.70;9.30;96506.00;;;;5116076;28;20198;-73
2021/12/28 09:49:01;;;;;;;0.60;0.60;;;10.00;87.00;9.20;96510.00;;;;5116575;28;20232;-75
2021/12/28 09:51:28;;;;;;;0.50;0.50;;;10.00;87.80;9.30;96509.00;;;;5116598;28;20202;-73
2021/12/28 09:53:55;;;;;;;0.50;0.50;;;10.00;87.90;9.50;96516.00;;;;5116437;28;20267;-73
2021/12/28 09:56:22;;;;;;;0.50;0.50;;;10.10;87.80;9.30;96513.00;;;;5116267;28;20281;-73
2021/12/28 09:58:51;;;;;;;0.60;0.60;;;10.10;87.90;9.30;96515.00;;;;5116415;28;20239;-74
2021/12/28 10:01:20;;;;;;;0.60;0.60;;;10.00;88.50;9.40;96505.00;;;;5116329;28;20229;-74
2021/12/28 10:03:46;;;;;;;0.67;0.67;;;10.00;88.80;9.30;96513.00;;;;5116381;28;20229;-74
2021/12/28 10:06:25;;;;;;;0.53;0.53;;;10.10;88.90;9.40;96518.00;;;;5116236;28;20305;-74
2021/12/28 10:09:06;;;;;;;0.50;0.50;;;10.00;89.10;9.40;96511.00;;;;5116220;28;20222;-73
2021/12/28 10:11:35;;;;;;;0.60;0.60;;;10.10;89.20;9.40;96516.00;;;;5116161;28;20213;-74
2021/12/28 10:14:15;;;;;;;0.63;0.63;;;10.10;89.20;9.50;96527.00;;;;5116210;28;20444;-72
2021/12/28 10:16:49;;;;;;;0.60;0.60;;;10.10;88.90;9.70;96522.00;;;;5115962;28;20271;-73
2021/12/28 10:19:38;;;;;;;0.60;0.60;;;10.20;88.90;9.70;96524.00;;;;5098455;28;20600;-75
2021/12/28 10:22:27;;;;;;;0.93;0.93;;;10.30;89.20;9.90;96530.00;;;;5116144;28;20629;-73
2021/12/28 10:24:56;;;;;;;0.60;0.60;;;10.50;88.70;10.00;96516.00;;;;5098547;28;20254;-73
2021/12/28 10:27:29;;;;;;;0.40;0.40;;;10.60;86.90;10.30;96523.00;;;;5116079;28;20198;-74
2021/12/28 10:30:14;;;;;;;0.57;0.57;;;10.80;86.20;10.30;96521.00;;;;5116280;28;20273;-73
2021/12/28 10:32:45;;;;;;;0.50;0.50;;;10.80;85.40;10.30;96524.00;;;;5116168;28;20636;-74
2021/12/28 10:35:15;;;;;;;0.60;0.60;;;10.90;86.10;10.30;96516.00;;;;5097985;28;20233;-73
2021/12/28 10:37:48;;;;;;;0.50;0.50;;;10.90;85.10;10.30;96502.00;;;;5115831;28;20555;-73
2021/12/28 10:40:26;;;;;;;0.60;0.60;;;10.90;85.30;10.20;96511.00;;;;5115652;28;20270;-74
2021/12/28 10:42:58;;;;;;;0.53;0.53;;;10.80;86.80;10.30;96506.00;;;;5115800;28;20332;-74
2021/12/28 10:45:29;;;;;;;0.50;0.50;;;10.90;86.80;10.50;96502.00;;;;5097705;28;20668;-73
2021/12/28 10:47:56;;;;;;;0.70;0.70;;;11.00;87.00;10.70;96508.00;;;;5115799;28;20258;-74
2021/12/28 10:50:35;;;;;;;0.50;0.50;;;11.20;86.40;10.60;96519.00;;;;5115510;28;20213;-74
2021/12/28 10:53:17;;;;;;;0.73;0.73;;;11.30;86.40;10.60;96519.00;;;;5115277;28;20223;-74
2021/12/28 10:55:47;;;;;;;0.90;0.90;;;11.30;86.50;10.90;96509.00;;;;5115609;28;20224;-74
2021/12/28 10:58:31;;;;;;;0.53;0.53;;;11.40;85.70;10.60;96516.00;;;;5114513;28;20218;-73
2021/12/28 11:01:09;;;;;;;0.60;0.60;;;11.30;86.20;10.50;96477.00;;;;5097477;28;20536;-73
2021/12/28 11:03:41;;;;;;;1.03;0.70;;;;;10.70;96515.00;;;;5115435;28;20201;-75
2021/12/28 11:06:18;;;;;;;0.87;0.87;;;11.30;89.00;10.60;96515.00;;;;5115395;28;20201;-75
2021/12/28 11:08:49;;;;;;;0.50;0.50;;;11.30;90.00;10.70;96516.00;;;;5115327;28;20289;-74
2021/12/28 11:11:22;;;;;;;0.50;0.50;;;11.30;90.80;10.60;96506.00;;;;5115290;28;20198;-79
2021/12/28 11:13:54;;;;;;;0.70;0.70;;;11.20;90.50;10.60;96503.00;;;;5115102;28;20225;-76
2021/12/28 11:16:26;;;;;;;1.27;0.67;;;11.30;90.70;10.80;96501.00;;;;5115231;28;20285;-77